| time (UTC) | temp F | wind direction | speed knots | gust knots | rain 1hr in | rain 24hr in | rain mn in | humidity % | barometer mb |
| 20260504151100 | 64 | 199 | 0.0 | 10.4 | 0.00 | 0.00 | 0.00 | 38 | 1009.7 |
| 20260504150551 | 63 | 304 | 0.0 | 13.0 | 0.00 | 0.00 | 0.00 | 39 | 1009.6 |
| 20260504141120 | 62 | 204 | 0.9 | 13.9 | 0.00 | 0.00 | 0.00 | 38 | 1009.7 |
| 20260504140552 | 62 | 153 | 0.0 | 3.5 | 0.00 | 0.00 | 0.00 | 40 | 1009.7 |
| 20260504130555 | 58 | 264 | 0.9 | 9.6 | 0.00 | 0.00 | 0.00 | 43 | 1010.4 |
| 20260504110550 | 50 | 220 | 0.0 | 2.6 | 0.00 | 0.00 | 0.00 | 57 | 1010.6 |
| 20260504100548 | 46 | 235 | 0.0 | 0.0 | 0.00 | 0.00 | 0.00 | 62 | 1010.3 |
| 20260504081551 | 45 | 269 | 0.0 | 0.0 | 0.00 | 0.00 | 0.00 | 66 | 1009.8 |
| 20260504081044 | 45 | 263 | 0.0 | 0.0 | 0.00 | 0.00 | 0.00 | 64 | 1009.9 |
| 20260504080557 | 45 | 263 | 0.0 | 0.0 | 0.00 | 0.00 | 0.00 | 65 | 1009.8 |
| 20260504080110 | 45 | 261 | 0.0 | 0.0 | 0.00 | 0.00 | 0.00 | 64 | 1009.9 |
| 20260504070110 | 47 | 288 | 0.0 | 0.0 | 0.00 | 0.00 | 0.00 | 59 | 1009.6 |
| 20260504050609 | 43 | 266 | 0.0 | 0.0 | 0.00 | 0.00 | 0.00 | 69 | 1009.4 |
| 20260504045550 | 43 | 266 | 0.0 | 0.0 | 0.00 | 0.00 | 0.00 | 67 | 1009.3 |
| 20260504045042 | 43 | 266 | 0.0 | 0.0 | 0.00 | 0.00 | 0.00 | 66 | 1009.3 |
| 20260504044555 | 43 | 266 | 0.0 | 0.0 | 0.00 | 0.00 | 0.00 | 66 | 1009.4 |
| 20260504044108 | 43 | 266 | 0.0 | 0.0 | 0.00 | 0.00 | 0.00 | 66 | 1009.4 |
| 20260504043557 | 43 | 266 | 0.0 | 0.0 | 0.00 | 0.00 | 0.00 | 68 | 1009.4 |
| 20260504043048 | 43 | 266 | 0.0 | 0.0 | 0.00 | 0.00 | 0.00 | 68 | 1009.4 |
| 20260504042541 | 43 | 266 | 0.0 | 0.0 | 0.00 | 0.00 | 0.00 | 67 | 1009.3 |
| 20260504042055 | 43 | 266 | 0.0 | 0.0 | 0.00 | 0.00 | 0.00 | 71 | 1009.4 |
| 20260504041547 | 43 | 266 | 0.0 | 0.0 | 0.00 | 0.00 | 0.00 | 71 | 1009.4 |
| 20260504041040 | 43 | 266 | 0.0 | 0.0 | 0.00 | 0.00 | 0.00 | 70 | 1009.4 |
| 20260504040553 | 43 | 266 | 0.0 | 0.0 | 0.00 | 0.00 | 0.00 | 64 | 1009.4 |
| 20260504040043 | 43 | 266 | 0.0 | 0.0 | 0.00 | 0.00 | 0.00 | 66 | 1009.3 |
| 20260504035558 | 43 | 266 | 0.0 | 0.0 | 0.00 | 0.00 | 0.00 | 66 | 1009.2 |
| 20260504035048 | 43 | 266 | 0.0 | 0.0 | 0.00 | 0.00 | 0.00 | 67 | 1009.2 |
| 20260504034601 | 44 | 266 | 0.0 | 0.0 | 0.00 | 0.00 | 0.00 | 70 | 1009.3 |
| 20260504034052 | 44 | 266 | 0.0 | 0.0 | 0.00 | 0.00 | 0.00 | 69 | 1009.2 |
| 20260504033542 | 44 | 266 | 0.0 | 0.0 | 0.00 | 0.00 | 0.00 | 62 | 1009.2 |
| 20260504033057 | 44 | 266 | 0.0 | 0.0 | 0.00 | 0.00 | 0.00 | 61 | 1009.2 |
| 20260504032610 | 44 | 266 | 0.0 | 0.0 | 0.00 | 0.00 | 0.00 | 61 | 1009.2 |
| 20260504032103 | 44 | 266 | 0.0 | 0.0 | 0.00 | 0.00 | 0.00 | 60 | 1009.2 |
| 20260504031550 | 44 | 266 | 0.0 | 0.0 | 0.00 | 0.00 | 0.00 | 59 | 1009.1 |
| 20260504031103 | 44 | 266 | 0.0 | 0.0 | 0.00 | 0.00 | 0.00 | 63 | 1009.1 |
| 20260504030556 | 44 | 266 | 0.0 | 0.0 | 0.00 | 0.00 | 0.00 | 62 | 1009.1 |
| 20260504030049 | 45 | 266 | 0.0 | 0.0 | 0.00 | 0.00 | 0.00 | 65 | 1009.1 |
| 20260504025541 | 45 | 266 | 0.0 | 0.0 | 0.00 | 0.00 | 0.00 | 66 | 1009.1 |
| 20260504025116 | 45 | 266 | 0.0 | 0.0 | 0.00 | 0.00 | 0.00 | 61 | 1009.0 |
| 20260504024547 | 45 | 266 | 0.0 | 0.0 | 0.00 | 0.00 | 0.00 | 60 | 1009.1 |
| 20260504024059 | 45 | 266 | 0.0 | 0.0 | 0.00 | 0.00 | 0.00 | 60 | 1009.1 |
| 20260504023551 | 45 | 266 | 0.0 | 0.0 | 0.00 | 0.00 | 0.00 | 59 | 1009.1 |
| 20260504023040 | 46 | 266 | 0.0 | 0.0 | 0.00 | 0.00 | 0.00 | 59 | 1009.2 |
| 20260504022554 | 46 | 266 | 0.0 | 0.0 | 0.00 | 0.00 | 0.00 | 58 | 1009.2 |
| 20260504022105 | 46 | 266 | 0.0 | 0.0 | 0.00 | 0.00 | 0.00 | 54 | 1009.3 |
| 20260504021557 | 46 | 266 | 0.0 | 0.0 | 0.00 | 0.00 | 0.00 | 54 | 1009.2 |
| 20260504021051 | 47 | 266 | 0.0 | 0.0 | 0.00 | 0.00 | 0.00 | 52 | 1009.2 |
| 20260504020541 | 47 | 266 | 0.0 | 0.0 | 0.00 | 0.00 | 0.00 | 53 | 1009.1 |
| 20260504020054 | 47 | 266 | 0.0 | 0.0 | 0.00 | 0.00 | 0.00 | 55 | 1009.0 |
| 20260504015547 | 47 | 266 | 0.0 | 0.0 | 0.00 | 0.00 | 0.00 | 52 | 1009.0 |
| 20260504015100 | 48 | 266 | 0.0 | 0.0 | 0.00 | 0.00 | 0.00 | 51 | 1009.1 |
| 20260504014612 | 48 | 266 | 0.0 | 0.0 | 0.00 | 0.00 | 0.00 | 50 | 1009.0 |
| 20260504014044 | 48 | 266 | 0.0 | 0.0 | 0.00 | 0.00 | 0.00 | 49 | 1009.0 |
| 20260504013556 | 48 | 266 | 0.0 | 0.0 | 0.00 | 0.00 | 0.00 | 48 | 1009.0 |
| 20260504013049 | 49 | 266 | 0.0 | 0.0 | 0.00 | 0.00 | 0.00 | 48 | 1008.9 |
| 20260504012556 | 49 | 266 | 0.0 | 0.0 | 0.00 | 0.00 | 0.00 | 46 | 1009.0 |
| 20260504012106 | 49 | 266 | 0.0 | 0.0 | 0.00 | 0.00 | 0.00 | 46 | 1008.9 |
| 20260504011559 | 50 | 266 | 0.0 | 0.0 | 0.00 | 0.00 | 0.00 | 44 | 1008.8 |
| 20260504011049 | 50 | 266 | 0.0 | 0.0 | 0.00 | 0.00 | 0.00 | 43 | 1008.8 |
| 20260504010540 | 51 | 266 | 0.0 | 0.0 | 0.00 | 0.00 | 0.00 | 43 | 1008.7 |
| 20260504010053 | 51 | 266 | 0.0 | 0.0 | 0.00 | 0.00 | 0.00 | 42 | 1008.6 |
| 20260504005543 | 51 | 265 | 0.0 | 0.0 | 0.00 | 0.00 | 0.00 | 42 | 1008.5 |
| 20260504005055 | 51 | 265 | 0.0 | 0.0 | 0.00 | 0.00 | 0.00 | 41 | 1008.4 |
| 20260504004547 | 52 | 265 | 0.0 | 0.0 | 0.00 | 0.00 | 0.00 | 40 | 1008.3 |
| 20260504004040 | 53 | 266 | 0.0 | 0.0 | 0.00 | 0.00 | 0.00 | 40 | 1008.2 |
| 20260504003553 | 53 | 266 | 0.0 | 0.0 | 0.00 | 0.00 | 0.00 | 39 | 1008.2 |
| 20260504003045 | 53 | 266 | 0.0 | 0.0 | 0.00 | 0.00 | 0.00 | 37 | 1008.1 |
| 20260504002558 | 54 | 263 | 0.0 | 1.7 | 0.00 | 0.00 | 0.00 | 37 | 1008.1 |
| 20260504002049 | 54 | 284 | 0.0 | 1.7 | 0.00 | 0.00 | 0.00 | 35 | 1008.0 |
| 20260504001540 | 54 | 277 | 0.0 | 0.0 | 0.00 | 0.00 | 0.00 | 35 | 1007.9 |
| 20260504001052 | 54 | 275 | 0.0 | 0.0 | 0.00 | 0.00 | 0.00 | 35 | 1007.9 |
| 20260504000543 | 54 | 259 | 0.0 | 0.9 | 0.00 | 0.00 | 0.00 | 35 | 1007.8 |
| 20260504000117 | 54 | 252 | 0.0 | 1.7 | 0.00 | 0.00 | 0.00 | 35 | 1007.8 |
| 20260503235609 | 54 | 355 | 0.0 | 1.7 | 0.00 | 0.00 | 0.00 | 35 | 1007.7 |
| 20260503235040 | 54 | 284 | 0.0 | 3.5 | 0.00 | 0.00 | 0.00 | 36 | 1007.6 |
| 20260503234555 | 54 | 280 | 0.0 | 3.5 | 0.00 | 0.00 | 0.00 | 36 | 1007.5 |
| 20260503234109 | 55 | 288 | 0.0 | 1.7 | 0.00 | 0.00 | 0.00 | 33 | 1007.4 |
| 20260503233540 | 55 | 266 | 0.0 | 7.0 | 0.00 | 0.00 | 0.00 | 34 | 1007.4 |
| 20260503233048 | 55 | 269 | 0.0 | 8.7 | 0.00 | 0.00 | 0.00 | 33 | 1007.3 |
| 20260503232540 | 55 | 326 | 0.0 | 8.7 | 0.00 | 0.00 | 0.00 | 33 | 1007.1 |
| 20260503232052 | 55 | 294 | 0.0 | 0.0 | 0.00 | 0.00 | 0.00 | 33 | 1007.1 |
| 20260503231544 | 55 | 355 | 0.0 | 0.0 | 0.00 | 0.00 | 0.00 | 34 | 1007.2 |
| 20260503231057 | 55 | 250 | 0.0 | 0.0 | 0.00 | 0.00 | 0.00 | 33 | 1007.1 |
| 20260503230548 | 55 | 266 | 0.0 | 3.5 | 0.00 | 0.00 | 0.00 | 31 | 1007.1 |
| 20260503230101 | 55 | 289 | 0.0 | 3.5 | 0.00 | 0.00 | 0.00 | 32 | 1007.0 |
| 20260503225551 | 56 | 279 | 0.0 | 0.9 | 0.00 | 0.00 | 0.00 | 33 | 1006.9 |
| 20260503225044 | 56 | 355 | 0.0 | 0.9 | 0.00 | 0.00 | 0.00 | 32 | 1006.9 |
| 20260503224555 | 57 | 316 | 0.0 | 2.6 | 0.00 | 0.00 | 0.00 | 32 | 1006.8 |
| 20260503224049 | 57 | 275 | 0.0 | 6.1 | 0.00 | 0.00 | 0.00 | 32 | 1006.7 |
| 20260503223541 | 57 | 298 | 0.0 | 6.1 | 0.00 | 0.00 | 0.00 | 30 | 1006.8 |
| 20260503223054 | 57 | 284 | 0.0 | 12.2 | 0.00 | 0.00 | 0.00 | 31 | 1006.8 |
| 20260503222544 | 57 | 286 | 0.9 | 12.2 | 0.00 | 0.00 | 0.00 | 30 | 1006.8 |
| 20260503222056 | 57 | 240 | 0.0 | 7.0 | 0.00 | 0.00 | 0.00 | 32 | 1006.8 |
| 20260503221546 | 57 | 336 | 0.0 | 7.0 | 0.00 | 0.00 | 0.00 | 33 | 1006.8 |
| 20260503221058 | 57 | 288 | 0.9 | 4.3 | 0.00 | 0.00 | 0.00 | 31 | 1006.7 |
| 20260503220549 | 57 | 309 | 0.0 | 5.2 | 0.00 | 0.00 | 0.00 | 36 | 1006.7 |
| 20260503215553 | 57 | 230 | 0.0 | 3.5 | 0.00 | 0.00 | 0.00 | 34 | 1006.7 |
| 20260503215107 | 57 | 290 | 0.0 | 0.0 | 0.00 | 0.00 | 0.00 | 33 | 1006.8 |
| 20260503214601 | 57 | 264 | 0.0 | 1.7 | 0.00 | 0.00 | 0.00 | 32 | 1006.8 |
| 20260503214053 | 57 | 314 | 0.0 | 7.8 | 0.00 | 0.00 | 0.00 | 34 | 1006.9 |
| 20260503213545 | 56 | 320 | 0.0 | 13.0 | 0.00 | 0.00 | 0.00 | 34 | 1006.8 |
| 20260503213052 | 56 | 308 | 0.0 | 13.0 | 0.00 | 0.00 | 0.00 | 36 | 1006.7 |
| 20260503212607 | 56 | 315 | 0.0 | 2.6 | 0.00 | 0.00 | 0.00 | 34 | 1006.7 |
| 20260503212057 | 56 | 239 | 0.0 | 8.7 | 0.00 | 0.00 | 0.00 | 35 | 1006.7 |
| 20260503211548 | 57 | 259 | 0.9 | 8.7 | 0.00 | 0.00 | 0.00 | 34 | 1006.6 |
| 20260503211038 | 57 | 298 | 0.0 | 4.3 | 0.00 | 0.00 | 0.00 | 36 | 1006.7 |
| 20260503210551 | 57 | 273 | 0.0 | 12.2 | 0.00 | 0.00 | 0.00 | 34 | 1006.7 |
| 20260503210104 | 57 | 314 | 0.0 | 12.2 | 0.00 | 0.00 | 0.00 | 35 | 1006.8 |
| 20260503205555 | 56 | 318 | 0.0 | 2.6 | 0.00 | 0.00 | 0.00 | 35 | 1006.7 |
| 20260503205108 | 56 | 106 | 0.0 | 3.5 | 0.00 | 0.00 | 0.00 | 37 | 1006.8 |
| 20260503204600 | 56 | 267 | 0.9 | 7.8 | 0.00 | 0.00 | 0.00 | 37 | 1006.7 |
| 20260503204052 | 56 | 304 | 0.0 | 10.4 | 0.00 | 0.00 | 0.00 | 40 | 1006.6 |
| 20260503203542 | 56 | 289 | 0.9 | 10.4 | 0.00 | 0.00 | 0.00 | 38 | 1006.6 |
| 20260503203057 | 56 | 272 | 0.9 | 8.7 | 0.00 | 0.00 | 0.00 | 37 | 1006.6 |
| 20260503202548 | 56 | 312 | 0.9 | 8.7 | 0.00 | 0.00 | 0.00 | 38 | 1006.7 |
| 20260503202101 | 56 | 246 | 0.0 | 2.6 | 0.00 | 0.00 | 0.00 | 40 | 1006.6 |
| 20260503201551 | 55 | 223 | 0.0 | 6.1 | 0.00 | 0.00 | 0.00 | 39 | 1006.6 |
| 20260503201041 | 55 | 12 | 0.0 | 7.8 | 0.00 | 0.00 | 0.00 | 38 | 1006.7 |
| 20260503200553 | 56 | 66 | 0.9 | 7.8 | 0.00 | 0.00 | 0.00 | 40 | 1006.6 |
| 20260503200043 | 55 | 51 | 0.0 | 6.1 | 0.00 | 0.00 | 0.00 | 40 | 1006.8 |
| 20260503195618 | 54 | 57 | 0.9 | 6.1 | 0.00 | 0.00 | 0.00 | 39 | 1006.8 |
| 20260503195049 | 54 | 325 | 0.9 | 7.0 | 0.00 | 0.00 | 0.00 | 38 | 1007.0 |
| 20260503194621 | 54 | 278 | 0.9 | 7.8 | 0.00 | 0.00 | 0.00 | 39 | 1006.9 |
| 20260503194052 | 55 | 79 | 0.9 | 7.8 | 0.00 | 0.00 | 0.00 | 40 | 1006.9 |
| 20260503193542 | 54 | 344 | 0.0 | 12.2 | 0.00 | 0.00 | 0.00 | 40 | 1006.9 |
| 20260503193118 | 54 | 301 | 2.6 | 13.0 | 0.00 | 0.00 | 0.00 | 39 | 1007.0 |
| 20260503192547 | 53 | 257 | 1.7 | 13.0 | 0.00 | 0.00 | 0.00 | 39 | 1007.1 |
| 20260503192100 | 53 | 325 | 0.0 | 7.8 | 0.00 | 0.00 | 0.00 | 40 | 1007.1 |
| 20260503191611 | 53 | 251 | 0.9 | 7.8 | 0.00 | 0.00 | 0.00 | 40 | 1007.0 |
| 20260503191041 | 54 | 5 | 0.0 | 7.8 | 0.00 | 0.00 | 0.00 | 42 | 1007.1 |
| 20260503190554 | 52 | 49 | 0.9 | 10.4 | 0.00 | 0.00 | 0.00 | 43 | 1007.2 |
| 20260503190046 | 52 | 291 | 1.7 | 10.4 | 0.00 | 0.00 | 0.00 | 42 | 1007.3 |
| 20260503185600 | 53 | 232 | 0.0 | 4.3 | 0.00 | 0.00 | 0.00 | 41 | 1007.2 |
| 20260503185050 | 53 | 294 | 0.0 | 6.1 | 0.00 | 0.00 | 0.00 | 42 | 1007.3 |
| 20260503184604 | 54 | 350 | 0.9 | 7.0 | 0.00 | 0.00 | 0.00 | 40 | 1007.3 |
| 20260503184119 | 53 | 267 | 0.9 | 7.0 | 0.00 | 0.00 | 0.00 | 40 | 1007.1 |
| 20260503183551 | 53 | 263 | 0.0 | 8.7 | 0.00 | 0.00 | 0.00 | 42 | 1007.2 |
| 20260503183105 | 52 | 289 | 0.9 | 8.7 | 0.00 | 0.00 | 0.00 | 41 | 1007.2 |
| 20260503182614 | 53 | 302 | 0.9 | 14.8 | 0.00 | 0.00 | 0.00 | 42 | 1007.1 |
| 20260503182045 | 52 | 306 | 3.5 | 14.8 | 0.00 | 0.00 | 0.00 | 42 | 1007.4 |
| 20260503181559 | 52 | 277 | 0.9 | 15.6 | 0.00 | 0.00 | 0.00 | 42 | 1007.2 |
| 20260503181112 | 52 | 302 | 4.3 | 15.6 | 0.00 | 0.00 | 0.00 | 40 | 1007.2 |
| 20260503180605 | 53 | 256 | 0.0 | 6.1 | 0.00 | 0.00 | 0.00 | 41 | 1007.2 |
| 20260503180057 | 52 | 269 | 0.0 | 11.3 | 0.00 | 0.00 | 0.00 | 40 | 1007.1 |
| 20260503175547 | 52 | 267 | 0.9 | 13.9 | 0.00 | 0.00 | 0.00 | 39 | 1007.1 |
| 20260503175059 | 53 | 317 | 4.3 | 13.9 | 0.00 | 0.00 | 0.00 | 37 | 1007.1 |
| 20260503174551 | 53 | 5 | 0.0 | 13.9 | 0.00 | 0.00 | 0.00 | 45 | 1007.1 |
| 20260503174044 | 52 | 282 | 2.6 | 10.4 | 0.00 | 0.00 | 0.00 | 40 | 1007.2 |
| 20260503173555 | 52 | 265 | 0.9 | 8.7 | 0.00 | 0.00 | 0.00 | 40 | 1007.2 |
| 20260503173046 | 52 | 16 | 0.0 | 4.3 | 0.00 | 0.00 | 0.00 | 40 | 1007.2 |
| 20260503172558 | 52 | 347 | 0.0 | 7.0 | 0.00 | 0.00 | 0.00 | 40 | 1007.2 |
| 20260503172113 | 53 | 355 | 0.9 | 11.3 | 0.00 | 0.00 | 0.00 | 39 | 1007.2 |
| 20260503171544 | 53 | 67 | 1.7 | 11.3 | 0.00 | 0.00 | 0.00 | 38 | 1007.1 |
| 20260503171057 | 52 | 290 | 1.7 | 11.3 | 0.00 | 0.00 | 0.00 | 41 | 1007.2 |
| 20260503170548 | 52 | 272 | 0.0 | 4.3 | 0.00 | 0.00 | 0.00 | 40 | 1007.1 |
| 20260503170122 | 52 | 88 | 0.0 | 12.2 | 0.00 | 0.00 | 0.00 | 41 | 1007.0 |